Time;durP1;ratioP1;P1;durP2;ratioP2;P2;SDS_P1;SDS_P2;PMS_P1;PMS_P2;Temp;Humidity;BMP_temperature;BMP_pressure;BME280_temperature;BME280_humidity;BME280_pressure;Samples;Min_cycle;Max_cycle;Signal;HPM_P1;HPM_P2
2021/10/02 00:37:38;;;;;;;1.23;0.80;;;;;;;27.61;22.24;98678.63;5084926;28;20047;-83
2021/10/02 00:45:38;;;;;;;2.25;1.00;;;;;;;27.40;22.51;98668.72;5082450;28;20586;-82
2021/10/02 00:48:04;;;;;;;0.80;0.70;;;;;;;27.44;22.32;98663.00;5079214;28;20089;-82
2021/10/02 00:50:30;;;;;;;0.80;0.80;;;;;;;27.40;22.72;98665.88;5083916;28;20068;-83
2021/10/02 00:52:56;;;;;;;1.02;0.80;;;;;;;27.50;22.36;98666.03;5100631;28;20028;-83
2021/10/02 00:55:22;;;;;;;2.00;1.30;;;;;;;27.31;22.99;98664.88;5087466;28;20110;-83
2021/10/02 00:57:50;;;;;;;1.30;1.08;;;;;;;26.79;23.44;98662.19;5083797;28;20400;-83
2021/10/02 01:00:16;;;;;;;1.60;1.17;;;;;;;26.30;24.38;98663.28;5091376;28;20024;-83
2021/10/02 01:02:50;;;;;;;0.88;0.88;;;;;;;26.75;24.01;98664.28;5070206;28;20488;-83
2021/10/02 01:05:46;;;;;;;2.33;1.17;;;;;;;26.01;24.70;98669.47;5083501;28;20748;-83
2021/10/02 01:09:07;;;;;;;1.05;0.73;;;;;;;26.66;23.97;98667.66;5087956;28;20171;-84
2021/10/02 01:11:52;;;;;;;1.70;1.02;;;;;;;26.63;24.08;98660.09;5082485;28;20040;-83
2021/10/02 01:14:36;;;;;;;1.00;0.73;;;;;;;27.13;23.34;98656.91;5101836;28;20028;-83
2021/10/02 01:17:16;;;;;;;0.95;0.70;;;;;;;27.14;23.34;98658.47;5071527;28;20048;-83
2021/10/02 01:20:01;;;;;;;2.53;1.00;;;;;;;26.12;24.91;98660.81;5083221;28;20101;-83
2021/10/02 01:22:52;;;;;;;0.95;0.60;;;;;;;26.85;23.70;98657.59;5088103;28;20025;-83
2021/10/02 01:25:37;;;;;;;1.42;0.90;;;;;;;27.24;23.17;98646.13;5093249;28;20689;-83
2021/10/02 01:28:20;;;;;;;0.90;0.90;;;;;;;26.90;23.57;98650.66;5094735;28;20051;-83
2021/10/02 01:33:42;;;;;;;1.75;1.15;;;;;;;25.65;25.52;98656.53;5090582;28;20052;-84
2021/10/02 01:36:30;;;;;;;1.58;1.15;;;;;;;25.76;25.67;98652.31;5094228;28;20484;-83
2021/10/02 01:47:24;;;;;;;2.15;1.08;;;;;;;26.60;24.33;98644.09;5096155;28;20043;-83
2021/10/02 01:49:54;;;;;;;1.38;0.95;;;;;;;27.16;23.31;98636.28;5094955;28;20395;-83
2021/10/02 01:52:31;;;;;;;1.48;0.98;;;;;;;26.99;23.76;98645.19;5114078;28;20036;-83
2021/10/02 01:54:59;;;;;;;1.60;0.73;;;;;;;27.40;23.08;98634.84;5099909;28;20495;-83
2021/10/02 01:57:31;;;;;;;2.17;0.82;;;;;;;27.43;23.22;98627.53;5104776;28;20110;-83
2021/10/02 02:00:01;;;;;;;1.75;0.70;;;;;;;27.30;23.29;98632.31;5094811;28;20387;-83
2021/10/02 02:02:29;;;;;;;1.13;0.90;;;;;;;26.11;25.11;98636.75;5088102;28;20059;-83
2021/10/02 02:04:57;;;;;;;1.55;1.30;;;;;;;24.35;27.23;98636.97;5094591;28;20107;-83
2021/10/02 02:07:27;;;;;;;1.25;1.08;;;;;;;25.25;26.09;98627.53;5093499;28;20114;-83
2021/10/02 02:09:56;;;;;;;0.97;0.87;;;;;;;26.07;24.89;98627.53;5088352;28;20063;-83
2021/10/02 02:12:30;;;;;;;1.40;0.80;;;;;;;26.12;25.24;98627.06;5105283;28;20040;-83
2021/10/02 02:14:56;;;;;;;1.77;1.00;;;;;;;26.18;25.08;98624.53;5103215;28;20414;-83
2021/10/02 02:17:25;;;;;;;2.00;1.38;;;;;;;24.41;27.44;98629.69;5095791;28;20044;-83
2021/10/02 02:19:55;;;;;;;1.13;1.02;;;;;;;25.42;26.23;98615.94;5091984;28;20482;-83
2021/10/02 02:22:23;;;;;;;0.70;0.70;;;;;;;26.12;25.12;98615.78;5102948;28;20044;-83
2021/10/02 02:24:49;;;;;;;1.40;0.80;;;;;;;26.82;24.17;98624.66;5093066;28;20031;-83
2021/10/02 02:27:16;;;;;;;2.88;2.20;;;;;;;27.04;23.56;98614.44;5078118;28;20122;-83
2021/10/02 02:29:42;;;;;;;4.57;1.08;;;;;;;26.74;24.18;98618.38;5090218;28;20063;-83
2021/10/02 02:32:08;;;;;;;2.15;1.02;;;;;;;26.02;24.85;98605.53;5090940;28;20036;-82
2021/10/02 02:34:35;;;;;;;0.75;0.70;;;;;;;26.31;24.62;98603.72;5089335;28;20035;-83
2021/10/02 02:37:01;;;;;;;5.47;1.15;;;;;;;25.70;25.17;98596.94;5106674;27;20388;-82
2021/10/02 02:39:27;;;;;;;1.00;0.90;;;;;;;24.36;27.29;98602.88;5089084;28;20039;-83
2021/10/02 02:41:54;;;;;;;1.65;1.10;;;;;;;22.82;30.17;98608.22;5091261;28;20140;-82
2021/10/02 02:44:20;;;;;;;1.15;1.05;;;;;;;23.46;29.04;98602.81;5089241;28;20487;-82
2021/10/02 02:46:55;;;;;;;1.55;1.30;;;;;;;22.58;30.73;98608.00;5064336;28;20021;-82
2021/10/02 02:49:34;;;;;;;2.38;0.90;;;;;;;23.72;28.84;98614.13;5084476;28;20036;-82
2021/10/02 02:52:02;;;;;;;0.95;0.80;;;;;;;24.00;28.37;98596.94;5090478;28;20472;-83
2021/10/02 02:54:49;;;;;;;1.98;1.17;;;;;;;24.11;28.35;98605.22;5089479;28;20038;-82
2021/10/02 02:57:21;;;;;;;1.45;1.20;;;;;;;23.29;29.21;98602.56;5090431;28;20373;-82
2021/10/02 03:00:13;;;;;;;1.20;1.10;;;;;;;22.96;29.99;98599.69;5089909;28;20047;-83
2021/10/02 03:02:58;;;;;;;5.03;1.10;;;;;;;23.59;29.15;98601.06;5088846;28;20058;-83
2021/10/02 03:05:40;;;;;;;1.70;1.00;;;;;;;24.81;27.35;98602.63;5022919;27;20399;-82
2021/10/02 03:08:11;;;;;;;0.90;0.80;;;;;;;24.52;27.28;98610.66;5005112;28;20034;-82
2021/10/02 03:10:38;;;;;;;;;;;;;;;24.92;26.94;98595.59;5007650;28;20030;-82
2021/10/02 03:13:10;;;;;;;2.20;1.15;;;;;;;24.51;27.14;98598.63;5005579;28;19918;-82
2021/10/02 03:15:38;;;;;;;1.60;1.20;;;;;;;23.75;28.58;98598.47;5000710;28;20041;-82
2021/10/02 03:18:04;;;;;;;1.58;1.35;;;;;;;23.67;28.76;98600.56;5005856;28;20048;-82
2021/10/02 03:20:31;;;;;;;1.45;1.30;;;;;;;23.98;28.38;98605.00;5008201;28;20098;-81
2021/10/02 03:22:57;;;;;;;1.35;1.15;;;;;;;23.61;28.82;98598.66;5067503;28;20052;-81
2021/10/02 03:25:27;;;;;;;2.08;1.25;;;;;;;23.38;29.01;98600.09;5003691;28;20534;-81
2021/10/02 03:27:56;;;;;;;3.50;1.13;;;;;;;23.67;28.81;98603.38;5008896;28;20477;-81
2021/10/02 03:30:22;;;;;;;2.55;1.00;;;;;;;24.56;27.67;98615.00;5003548;28;20045;-81
2021/10/02 03:32:50;;;;;;;1.58;1.20;;;;;;;24.28;27.79;98603.41;5019910;28;20034;-82
2021/10/02 03:35:18;;;;;;;1.33;0.93;;;;;;;25.11;26.50;98596.88;5004119;28;20095;-81
2021/10/02 03:37:46;;;;;;;1.15;0.90;;;;;;;25.29;26.11;98595.31;5032766;28;20101;-82
2021/10/02 03:40:13;;;;;;;2.33;1.38;;;;;;;24.87;26.72;98587.66;5059459;28;20401;-82
2021/10/02 03:42:46;;;;;;;1.30;1.05;;;;;;;24.44;27.61;98590.31;5005860;28;20478;-85
2021/10/02 03:45:14;;;;;;;1.20;1.10;;;;;;;25.19;26.19;98596.31;5002996;28;20406;-83
2021/10/02 03:47:40;;;;;;;1.58;1.10;;;;;;;24.49;27.40;98595.47;5012449;28;20046;-82
2021/10/02 03:50:08;;;;;;;1.48;0.98;;;;;;;26.16;24.95;98588.38;5006226;28;20121;-82
2021/10/02 03:52:34;;;;;;;1.60;1.50;;;;;;;26.62;24.36;98585.28;5027210;28;20088;-83
2021/10/02 03:55:01;;;;;;;1.75;1.08;;;;;;;26.59;24.09;98588.97;5000698;28;20402;-82
2021/10/02 03:57:27;;;;;;;2.55;0.95;;;;;;;26.80;24.24;98584.06;5018100;28;20038;-82
2021/10/02 03:59:53;;;;;;;1.55;1.30;;;;;;;26.85;24.06;98589.97;5005789;28;20042;-83
2021/10/02 04:02:19;;;;;;;1.45;0.90;;;;;;;26.28;24.49;98582.06;5005826;28;20087;-82
2021/10/02 04:04:46;;;;;;;1.10;0.88;;;;;;;25.54;25.67;98578.00;5005404;28;20502;-82
2021/10/02 04:07:12;;;;;;;1.05;0.90;;;;;;;25.47;25.73;98592.19;5003671;28;20037;-82
2021/10/02 04:09:38;;;;;;;1.15;1.05;;;;;;;26.26;24.72;98581.69;4999028;28;20069;-82
2021/10/02 04:12:05;;;;;;;2.35;1.77;;;;;;;26.94;23.82;98580.88;5006010;28;20061;-82
2021/10/02 04:14:31;;;;;;;1.23;1.05;;;;;;;26.54;24.08;98580.22;5005468;28;20046;-82
2021/10/02 04:16:58;;;;;;;1.45;0.90;;;;;;;26.32;24.63;98584.81;4991034;28;20034;-82
2021/10/02 04:19:24;;;;;;;1.40;0.80;;;;;;;26.48;24.49;98585.63;4989307;28;20371;-81
2021/10/02 04:21:50;;;;;;;0.82;0.82;;;;;;;25.48;25.87;98582.56;4987261;28;20616;-82
2021/10/02 04:24:17;;;;;;;0.70;0.70;;;;;;;26.17;24.74;98589.16;4987585;28;20486;-81
2021/10/02 04:26:43;;;;;;;1.35;1.00;;;;;;;25.61;25.32;98580.66;4989745;28;20443;-81
2021/10/02 04:29:10;;;;;;;1.20;0.82;;;;;;;26.50;24.69;98585.16;4998324;28;20030;-82
2021/10/02 04:31:36;;;;;;;0.90;0.80;;;;;;;26.12;24.98;98589.66;5030257;27;20505;-81
2021/10/02 04:34:02;;;;;;;0.88;0.80;;;;;;;26.31;24.60;98584.00;5003727;28;20042;-82
2021/10/02 04:36:29;;;;;;;1.08;0.90;;;;;;;25.70;25.39;98582.91;4988972;28;20106;-81
2021/10/02 04:38:55;;;;;;;1.48;0.65;;;;;;;26.58;24.41;98586.59;4983473;28;20042;-82
2021/10/02 04:41:21;;;;;;;0.85;0.70;;;;;;;27.04;23.70;98583.44;4986800;28;20062;-82
2021/10/02 04:43:48;;;;;;;1.10;1.00;;;;;;;27.17;23.38;98589.13;4982890;28;20030;-82
2021/10/02 04:46:16;;;;;;;1.58;1.00;;;;;;;26.83;23.66;98586.81;4984272;28;20026;-81
2021/10/02 04:48:42;;;;;;;1.10;1.00;;;;;;;26.48;24.00;98587.63;4984255;28;20451;-81
2021/10/02 04:51:09;;;;;;;1.05;0.85;;;;;;;26.20;24.60;98585.47;4989012;28;20033;-82
2021/10/02 04:53:36;;;;;;;1.30;1.17;;;;;;;24.96;26.08;98590.72;4982514;28;20125;-83
2021/10/02 04:56:06;;;;;;;2.80;1.05;;;;;;;25.77;25.65;98583.53;4987913;28;20038;-82
2021/10/02 04:58:32;;;;;;;1.75;1.00;;;;;;;25.68;25.77;98590.97;4982076;28;20042;-83
2021/10/02 05:00:59;;;;;;;0.80;0.80;;;;;;;26.45;24.58;98594.13;4989580;28;20482;-82
2021/10/02 05:03:25;;;;;;;1.80;1.02;;;;;;;26.67;24.19;98592.41;4985763;28;20489;-82
2021/10/02 05:05:52;;;;;;;1.00;0.90;;;;;;;26.64;24.15;98584.81;5004125;28;20038;-81
2021/10/02 05:08:18;;;;;;;1.20;0.98;;;;;;;25.85;25.18;98587.00;4988536;28;20039;-82
2021/10/02 05:10:44;;;;;;;1.23;1.10;;;;;;;25.50;25.85;98584.91;4989812;28;20035;-82
2021/10/02 05:13:11;;;;;;;1.30;1.20;;;;;;;25.80;25.59;98577.06;4983992;28;20130;-82
2021/10/02 05:15:37;;;;;;;1.33;0.93;;;;;;;26.66;24.48;98588.78;4984846;28;20041;-82
2021/10/02 05:18:03;;;;;;;1.25;1.10;;;;;;;26.88;24.13;98577.81;4987312;28;20041;-82
2021/10/02 05:20:30;;;;;;;3.65;1.30;;;;;;;26.78;24.11;98581.69;5001508;28;20024;-81
2021/10/02 05:22:57;;;;;;;2.25;1.20;;;;;;;25.41;26.45;98580.63;4988602;28;20069;-81
2021/10/02 05:25:24;;;;;;;1.70;1.58;;;;;;;25.05;26.81;98582.50;4993131;28;20038;-81
2021/10/02 05:27:50;;;;;;;2.42;1.27;;;;;;;26.07;25.63;98580.47;4983707;28;20505;-84
2021/10/02 05:30:17;;;;;;;1.33;1.23;;;;;;;25.51;26.12;98586.53;4986214;28;20467;-83
2021/10/02 05:32:43;;;;;;;1.98;1.20;;;;;;;26.49;25.29;98583.59;4986568;28;20091;-83
2021/10/02 05:35:09;;;;;;;3.15;1.45;;;;;;;26.07;25.77;98588.13;4985515;28;20039;-83
2021/10/02 05:37:41;;;;;;;1.00;0.90;;;;;;;26.94;25.02;98586.53;4986424;28;20054;-83
2021/10/02 05:40:08;;;;;;;2.13;1.58;;;;;;;26.40;25.33;98591.84;4978218;28;20023;-83
2021/10/02 05:42:34;;;;;;;1.73;1.33;;;;;;;26.88;24.99;98593.94;4985996;28;20035;-84
2021/10/02 05:45:00;;;;;;;1.30;1.05;;;;;;;27.58;24.16;98597.72;4981768;28;20129;-84
2021/10/02 05:47:28;;;;;;;1.55;1.20;;;;;;;27.45;24.49;98590.41;4990459;28;20037;-84
2021/10/02 05:49:54;;;;;;;1.90;1.70;;;;;;;26.34;25.99;98582.34;4980490;28;20061;-84
2021/10/02 05:52:21;;;;;;;3.58;1.88;;;;;;;26.90;25.78;98588.66;4981386;28;20042;-85
2021/10/02 05:54:47;;;;;;;2.05;1.88;;;;;;;26.65;25.48;98590.00;5008781;28;20480;-84
2021/10/02 05:57:13;;;;;;;2.50;1.40;;;;;;;26.90;25.84;98589.44;4995420;28;20142;-84
2021/10/02 05:59:39;;;;;;;4.82;1.10;;;;;;;27.71;24.64;98590.09;4998761;28;20030;-85
2021/10/02 06:02:07;;;;;;;2.80;1.88;;;;;;;27.26;25.44;98589.28;4983765;28;20022;-84
2021/10/02 06:04:33;;;;;;;1.40;1.30;;;;;;;28.20;24.04;98593.50;4989677;28;20107;-84
2021/10/02 06:06:59;;;;;;;2.13;1.92;;;;;;;28.40;24.13;98591.25;4982694;28;20034;-83
2021/10/02 06:09:26;;;;;;;1.67;1.48;;;;;;;28.14;24.09;98594.50;4983434;28;20059;-84
2021/10/02 06:11:52;;;;;;;2.53;1.20;;;;;;;28.78;23.74;98588.44;4985635;28;20053;-84
2021/10/02 06:14:18;;;;;;;2.45;1.40;;;;;;;29.16;23.38;98594.81;4987831;28;20045;-84
2021/10/02 06:16:44;;;;;;;1.40;1.30;;;;;;;29.16;23.76;98591.19;4986447;28;20117;-85
2021/10/02 06:19:13;;;;;;;1.88;1.77;;;;;;;28.87;24.14;98599.06;4991802;28;20427;-85
2021/10/02 06:21:39;;;;;;;2.03;1.50;;;;;;;28.55;24.85;98597.25;4987273;28;20043;-85
2021/10/02 06:24:06;;;;;;;1.90;1.50;;;;;;;28.83;23.96;98593.53;4981277;28;20091;-85
2021/10/02 06:26:35;;;;;;;1.45;1.25;;;;;;;28.98;23.91;98593.84;4985840;28;20038;-85
2021/10/02 06:29:02;;;;;;;1.83;1.35;;;;;;;29.04;24.32;98597.66;5031836;28;20065;-85
2021/10/02 06:31:28;;;;;;;1.00;0.90;;;;;;;28.88;24.37;98592.97;4993629;28;20080;-85
2021/10/02 06:33:54;;;;;;;3.45;1.50;;;;;;;29.55;23.87;98590.63;4986342;28;20493;-85
2021/10/02 06:36:20;;;;;;;1.38;1.00;;;;;;;29.55;23.97;98593.47;4985364;28;20030;-85
2021/10/02 06:38:46;;;;;;;1.27;1.08;;;;;;;29.76;24.23;98591.91;4983211;28;20521;-85
2021/10/02 06:41:13;;;;;;;2.15;1.95;;;;;;;28.80;24.68;98593.66;4981729;28;20494;-85
2021/10/02 06:43:39;;;;;;;1.65;1.30;;;;;;;29.25;24.88;98594.94;4976830;28;20038;-86
2021/10/02 06:46:05;;;;;;;6.18;2.33;;;;;;;29.07;24.54;98600.38;4999936;28;20030;-86
2021/10/02 06:48:32;;;;;;;3.35;1.35;;;;;;;29.62;24.63;98593.19;4984887;28;20066;-86
2021/10/02 06:50:58;;;;;;;2.60;1.90;;;;;;;28.89;25.33;98594.53;4982997;28;20031;-86
2021/10/02 06:53:24;;;;;;;2.78;1.90;;;;;;;28.93;25.81;98591.59;4980331;28;20074;-86
2021/10/02 06:55:50;;;;;;;2.83;2.17;;;;;;;28.92;25.74;98590.78;4983242;28;20111;-86
2021/10/02 06:58:16;;;;;;;3.67;1.52;;;;;;;28.83;26.19;98595.56;4984726;28;20457;-85
2021/10/02 07:00:42;;;;;;;3.63;2.10;;;;;;;29.06;26.64;98595.97;4987587;28;20487;-86
2021/10/02 07:03:08;;;;;;;6.68;2.05;;;;;;;27.76;27.69;98591.56;4984475;28;20046;-87
2021/10/02 07:05:34;;;;;;;3.22;2.90;;;;;;;27.61;27.96;98581.94;4987019;28;20043;-86
2021/10/02 07:08:00;;;;;;;2.13;1.58;;;;;;;28.78;26.88;98593.31;4983525;28;20035;-85
2021/10/02 07:10:27;;;;;;;2.45;1.75;;;;;;;29.60;26.30;98583.59;4979514;28;20424;-86
2021/10/02 07:12:54;;;;;;;2.47;1.90;;;;;;;30.01;25.04;98572.75;4979236;28;20035;-85
2021/10/02 07:15:21;;;;;;;2.88;1.88;;;;;;;30.18;24.79;98578.97;4973990;28;20046;-85
2021/10/02 07:17:47;;;;;;;1.65;1.40;;;;;;;30.66;24.75;98581.13;5000746;28;20022;-86
2021/10/02 07:20:14;;;;;;;1.52;1.40;;;;;;;30.61;25.09;98587.41;4975805;28;20037;-85
2021/10/02 07:22:42;;;;;;;2.13;1.70;;;;;;;30.63;24.75;98590.56;4985481;28;20041;-85
2021/10/02 07:25:14;;;;;;;3.78;2.30;;;;;;;30.70;24.49;98586.63;4977622;28;20026;-85
2021/10/02 07:27:42;;;;;;;2.22;1.90;;;;;;;30.52;25.68;98586.56;4993127;28;20032;-86
2021/10/02 07:30:10;;;;;;;2.10;1.63;;;;;;;31.04;25.74;98591.34;4984843;28;20039;-85
2021/10/02 07:32:37;;;;;;;2.42;1.60;;;;;;;30.78;25.30;98588.69;4983919;28;20092;-86
2021/10/02 07:35:04;;;;;;;1.67;1.58;;;;;;;31.22;24.88;98589.31;4981597;28;20046;-86
2021/10/02 07:37:30;;;;;;;3.78;2.22;;;;;;;31.28;24.71;98592.31;4986581;28;20045;-84
2021/10/02 07:39:56;;;;;;;3.08;1.88;;;;;;;31.44;24.53;98592.03;4994978;28;20391;-84
2021/10/02 07:42:24;;;;;;;5.13;2.20;;;;;;;31.11;25.24;98588.97;4985541;28;20042;-84
2021/10/02 07:44:55;;;;;;;2.65;1.98;;;;;;;31.53;24.45;98586.34;4989236;28;20130;-84
2021/10/02 07:47:23;;;;;;;2.58;2.35;;;;;;;31.08;24.92;98598.44;4989939;28;20031;-84
2021/10/02 07:49:50;;;;;;;2.83;2.35;;;;;;;31.97;24.22;98589.69;5001799;28;20026;-84
2021/10/02 07:52:18;;;;;;;4.13;2.38;;;;;;;31.93;24.19;98589.81;4991296;28;20042;-84
2021/10/02 07:54:45;;;;;;;4.38;2.13;;;;;;;32.02;24.02;98595.50;4992705;28;20080;-84
2021/10/02 07:57:11;;;;;;;12.02;4.82;;;;;;;31.54;23.81;98590.78;4987078;28;20035;-84
2021/10/02 07:59:38;;;;;;;8.55;3.50;;;;;;;32.17;23.85;98587.09;4984297;28;20128;-84
2021/10/02 08:02:07;;;;;;;3.53;3.22;;;;;;;32.25;22.49;98585.50;4992024;28;20036;-84
2021/10/02 08:04:34;;;;;;;4.75;2.60;;;;;;;32.76;22.93;98582.66;4992094;28;20059;-84
2021/10/02 08:07:01;;;;;;;3.83;2.97;;;;;;;32.51;22.76;98586.69;4992967;28;20035;-84
2021/10/02 08:09:27;;;;;;;3.53;2.95;;;;;;;32.67;23.10;98586.31;4989669;28;20061;-84
2021/10/02 08:11:53;;;;;;;4.95;3.35;;;;;;;32.65;22.31;98582.41;4993191;28;20048;-84
2021/10/02 08:14:20;;;;;;;4.93;2.95;;;;;;;32.77;22.60;98581.34;4991392;28;20451;-84
2021/10/02 08:16:47;;;;;;;5.82;2.83;;;;;;;33.01;22.89;98587.91;4992985;28;20091;-84
2021/10/02 08:19:16;;;;;;;3.55;2.60;;;;;;;33.46;22.70;98583.16;4988042;28;20034;-84
2021/10/02 08:21:43;;;;;;;3.25;2.38;;;;;;;33.77;20.89;98581.47;4993176;28;20034;-84
2021/10/02 08:24:10;;;;;;;5.72;3.30;;;;;;;33.42;22.00;98581.28;5001027;28;20401;-84
2021/10/02 08:26:37;;;;;;;3.42;2.60;;;;;;;33.81;21.13;98582.09;4988917;28;20046;-84
2021/10/02 08:29:04;;;;;;;3.90;2.00;;;;;;;33.43;21.96;98584.91;4993085;28;20053;-84
2021/10/02 08:31:33;;;;;;;2.78;1.85;;;;;;;33.66;21.63;98586.97;4992911;28;20115;-84
2021/10/02 08:33:59;;;;;;;4.47;2.85;;;;;;;33.26;22.29;98587.41;4991967;28;20045;-85
2021/10/02 08:36:25;;;;;;;3.13;2.67;;;;;;;33.49;22.08;98583.00;4992400;28;20044;-84
2021/10/02 08:38:51;;;;;;;2.53;1.92;;;;;;;33.74;20.77;98576.00;4991496;28;20514;-84
2021/10/02 08:41:20;;;;;;;5.43;2.85;;;;;;;33.66;21.42;98574.78;4995076;28;20034;-84
2021/10/02 08:43:50;;;;;;;3.15;2.78;;;;;;;33.63;21.69;98570.09;4993673;28;20433;-84
2021/10/02 08:46:18;;;;;;;3.25;2.50;;;;;;;33.78;21.60;98582.28;4990463;28;20039;-84
2021/10/02 08:49:12;;;;;;;3.42;2.17;;;;;;;33.64;21.44;98580.97;4989574;28;20432;-84
2021/10/02 08:51:41;;;;;;;5.00;2.90;;;;;;;33.20;22.67;98577.97;4989884;28;20030;-85
2021/10/02 08:54:08;;;;;;;4.07;3.10;;;;;;;33.13;22.36;98575.50;4984669;28;20053;-85
2021/10/02 08:56:37;;;;;;;4.32;2.22;;;;;;;32.84;23.03;98577.41;4980597;28;20044;-84
2021/10/02 08:59:03;;;;;;;3.95;3.42;;;;;;;32.37;22.76;98573.13;4992445;28;20027;-84
2021/10/02 09:01:32;;;;;;;3.15;2.85;;;;;;;32.19;23.16;98570.34;4992469;28;20035;-85
2021/10/02 09:04:01;;;;;;;3.35;2.83;;;;;;;33.22;22.41;98581.13;4991276;28;20498;-84
2021/10/02 09:06:28;;;;;;;2.75;2.42;;;;;;;34.04;21.92;98567.00;4990782;28;20058;-85
2021/10/02 09:08:54;;;;;;;4.45;2.65;;;;;;;34.19;22.08;98572.72;4991050;28;20402;-84
2021/10/02 09:11:20;;;;;;;2.72;2.50;;;;;;;34.27;21.33;98573.09;4986717;28;20551;-84
2021/10/02 09:13:46;;;;;;;3.00;2.45;;;;;;;34.48;21.04;98569.03;4992134;28;20117;-85
2021/10/02 09:16:12;;;;;;;3.05;2.28;;;;;;;34.89;19.54;98567.09;4991793;28;20084;-84
2021/10/02 09:18:39;;;;;;;3.63;2.58;;;;;;;34.99;20.22;98569.31;4992489;28;20041;-84
2021/10/02 09:21:07;;;;;;;2.80;2.38;;;;;;;35.20;19.86;98559.50;4992430;28;20481;-84
2021/10/02 09:23:41;;;;;;;3.05;2.38;;;;;;;35.40;19.17;98567.31;4990069;28;20133;-83
2021/10/02 09:26:11;;;;;;;2.17;1.98;;;;;;;35.38;19.98;98564.19;4991119;28;20566;-85
2021/10/02 09:28:51;;;;;;;2.35;2.15;;;;;;;34.82;20.69;98568.31;4990624;28;20031;-86
2021/10/02 09:31:19;;;;;;;3.67;2.42;;;;;;;34.60;20.75;98560.19;4985198;28;20039;-85
2021/10/02 09:33:47;;;;;;;3.03;2.40;;;;;;;34.48;21.21;98560.47;4990171;28;20046;-85
2021/10/02 09:36:20;;;;;;;2.53;2.33;;;;;;;34.09;21.09;98554.13;4991570;28;20038;-85
2021/10/02 09:38:50;;;;;;;5.05;2.50;;;;;;;34.11;20.17;98565.81;5012251;28;20025;-85
2021/10/02 09:41:16;;;;;;;4.03;2.33;;;;;;;34.08;21.01;98561.09;5001715;28;20039;-85
2021/10/02 09:43:50;;;;;;;3.17;2.63;;;;;;;34.30;19.83;98560.72;4988726;28;20038;-85
2021/10/02 09:46:32;;;;;;;2.67;2.47;;;;;;;34.68;20.45;98557.72;4990072;28;20087;-85
2021/10/02 09:48:59;;;;;;;3.72;2.70;;;;;;;34.57;19.75;98558.31;4991711;28;20105;-84
2021/10/02 09:51:41;;;;;;;2.90;2.67;;;;;;;34.69;20.29;98556.44;4991532;28;20072;-85
2021/10/02 09:54:08;;;;;;;2.67;2.47;;;;;;;34.95;20.05;98560.19;4990571;28;20035;-85
2021/10/02 09:56:34;;;;;;;3.08;2.75;;;;;;;34.35;20.30;98560.00;4991393;28;20030;-85
2021/10/02 09:59:00;;;;;;;2.58;2.38;;;;;;;34.65;20.14;98556.66;4991395;28;20069;-85
2021/10/02 10:01:27;;;;;;;2.53;2.30;;;;;;;34.80;19.79;98552.97;4988741;28;20042;-85
2021/10/02 10:03:54;;;;;;;4.95;3.08;;;;;;;34.78;20.05;98550.59;4991545;28;20084;-85
2021/10/02 10:06:25;;;;;;;2.30;2.10;;;;;;;35.39;20.23;98548.59;4988827;28;20068;-85
2021/10/02 10:09:07;;;;;;;3.95;2.47;;;;;;;35.61;18.89;98548.88;4988072;28;20060;-85
2021/10/02 10:11:40;;;;;;;3.92;2.53;;;;;;;35.17;18.82;98551.19;4988455;28;20130;-88
2021/10/02 10:14:07;;;;;;;3.75;2.25;;;;;;;34.96;19.94;98544.63;4988207;28;20042;-87
2021/10/02 10:16:38;;;;;;;2.50;2.30;;;;;;;35.42;19.32;98539.81;4985930;28;20498;-88
2021/10/02 10:19:20;;;;;;;3.58;2.33;;;;;;;35.74;19.07;98542.78;4979251;28;20390;-87
2021/10/02 10:22:08;;;;;;;3.05;2.25;;;;;;;35.73;19.21;98539.13;4975380;28;20065;-88
2021/10/02 10:24:36;;;;;;;3.10;2.28;;;;;;;34.77;20.25;98534.78;4991032;28;20409;-87
2021/10/02 10:27:04;;;;;;;3.65;2.35;;;;;;;35.32;19.74;98538.38;4990491;28;20133;-87
2021/10/02 10:29:43;;;;;;;3.15;2.45;;;;;;;35.13;19.80;98539.16;4989802;28;20038;-85
2021/10/02 10:32:11;;;;;;;2.90;2.70;;;;;;;34.74;20.91;98539.41;4990795;28;20039;-85
2021/10/02 10:34:40;;;;;;;2.95;2.65;;;;;;;34.00;20.56;98537.88;4990094;28;20565;-85
2021/10/02 10:37:08;;;;;;;4.15;2.67;;;;;;;34.38;21.17;98537.00;4990644;28;20038;-86
2021/10/02 10:39:35;;;;;;;3.00;2.70;;;;;;;34.11;21.02;98537.31;4981725;28;20039;-84
2021/10/02 10:42:03;;;;;;;2.35;2.15;;;;;;;34.88;20.05;98539.84;4991052;28;20394;-84
2021/10/02 10:44:30;;;;;;;3.15;2.80;;;;;;;35.41;19.58;98534.59;4990133;28;20030;-84
2021/10/02 10:46:57;;;;;;;2.88;2.40;;;;;;;35.70;19.32;98539.38;4987795;28;20498;-84
2021/10/02 10:49:25;;;;;;;2.53;2.33;;;;;;;35.96;19.12;98531.59;4993893;28;20397;-84
2021/10/02 10:51:57;;;;;;;4.88;2.28;;;;;;;36.24;19.09;98534.72;4990660;28;20085;-85
2021/10/02 10:54:23;;;;;;;3.00;2.15;;;;;;;35.74;19.14;98528.50;4979154;28;20079;-84
2021/10/02 10:56:49;;;;;;;2.33;2.03;;;;;;;35.82;18.78;98527.56;4974497;28;20038;-84
2021/10/02 10:59:19;;;;;;;2.03;1.83;;;;;;;35.49;18.74;98518.59;4987537;28;20045;-84
2021/10/02 11:01:47;;;;;;;2.50;2.30;;;;;;;34.96;19.75;98513.22;4988795;28;20438;-84
2021/10/02 11:04:37;;;;;;;3.53;2.10;;;;;;;35.73;18.80;98515.50;4987277;28;20051;-84
2021/10/02 11:07:13;;;;;;;2.88;2.17;;;;;;;36.38;18.73;98514.56;4990730;28;20029;-85
2021/10/02 11:09:44;;;;;;;4.07;2.13;;;;;;;35.96;19.07;98514.44;4990126;28;20160;-83
2021/10/02 11:12:12;;;;;;;2.67;2.25;;;;;;;36.42;17.79;98502.88;4990266;28;20121;-84
2021/10/02 11:14:47;;;;;;;1.85;1.75;;;;;;;36.47;18.32;98510.75;4990291;28;20421;-84
2021/10/02 11:17:37;;;;;;;2.25;1.70;;;;;;;36.69;17.88;98502.28;4983641;28;20027;-84
2021/10/02 11:20:20;;;;;;;2.10;1.90;;;;;;;36.57;17.36;98503.53;4978996;28;20108;-84
2021/10/02 11:23:23;;;;;;;4.18;1.88;;;;;;;36.66;18.62;98495.53;4990351;28;20037;-85
2021/10/02 11:26:10;;;;;;;2.20;2.00;;;;;;;36.43;18.16;98504.44;4987975;28;20041;-84
2021/10/02 11:28:37;;;;;;;2.00;1.80;;;;;;;36.95;17.28;98499.31;4993514;28;20376;-84
2021/10/02 11:31:13;;;;;;;1.65;1.55;;;;;;;36.92;17.27;98498.31;4997019;28;20474;-85
2021/10/02 11:33:48;;;;;;;1.85;1.67;;;;;;;36.90;17.92;98494.34;5034517;28;20154;-85
2021/10/02 11:36:32;;;;;;;2.88;1.85;;;;;;;37.12;17.73;98486.66;5078755;28;20042;-83
2021/10/02 11:39:10;;;;;;;2.35;1.65;;;;;;;37.36;18.15;98489.09;5004158;28;20034;-84
2021/10/02 11:41:48;;;;;;;4.47;2.15;;;;;;;37.07;17.52;98496.00;5013651;28;20394;-84
2021/10/02 11:44:22;;;;;;;1.90;1.80;;;;;;;37.14;17.36;98491.88;5024698;28;20122;-84
2021/10/02 11:46:55;;;;;;;1.67;1.58;;;;;;;36.94;17.71;98486.31;5016800;28;20113;-84
2021/10/02 11:49:21;;;;;;;5.28;1.80;;;;;;;36.44;17.74;98480.25;5021696;28;20039;-85
2021/10/02 11:52:10;;;;;;;3.80;2.20;;;;;;;35.85;18.07;98480.78;5004426;28;20482;-84
2021/10/02 11:54:37;;;;;;;8.38;2.00;;;;;;;35.77;17.23;98479.69;5001861;28;20022;-83
2021/10/02 11:57:12;;;;;;;1.83;1.70;;;;;;;35.98;18.19;98475.50;5004027;28;20121;-84
2021/10/02 11:59:42;;;;;;;4.70;2.13;;;;;;;36.25;17.87;98479.84;5019075;28;20038;-84
2021/10/02 12:02:09;;;;;;;2.67;2.10;;;;;;;36.09;17.57;98483.38;4995061;28;20044;-84
2021/10/02 12:04:36;;;;;;;2.15;1.75;;;;;;;36.00;17.56;98477.84;4995514;28;20032;-85
2021/10/02 12:07:03;;;;;;;3.00;2.17;;;;;;;36.38;17.76;98479.44;4989468;28;20113;-84
2021/10/02 12:09:30;;;;;;;1.88;1.63;;;;;;;36.59;17.53;98473.13;5013163;28;20061;-84
2021/10/02 12:11:57;;;;;;;2.88;2.35;;;;;;;36.53;18.72;98474.34;5003690;28;20026;-84
2021/10/02 12:14:25;;;;;;;1.92;1.73;;;;;;;36.96;17.91;98473.06;5035143;28;20027;-84
2021/10/02 12:17:02;;;;;;;1.95;1.70;;;;;;;37.47;17.49;98477.69;4991335;28;20440;-84
2021/10/02 12:19:30;;;;;;;1.85;1.75;;;;;;;37.13;16.55;98476.75;4995867;28;20153;-84
2021/10/02 12:22:05;;;;;;;1.58;1.48;;;;;;;36.96;16.76;98472.28;4989081;28;20034;-84
2021/10/02 12:24:40;;;;;;;1.52;1.35;;;;;;;36.93;16.49;98476.94;4983016;28;20121;-84
2021/10/02 12:27:15;;;;;;;2.00;1.70;;;;;;;36.77;16.88;98476.84;4995820;28;20035;-84
2021/10/02 12:29:47;;;;;;;1.55;1.45;;;;;;;36.60;18.35;98471.00;4989970;28;20508;-84
2021/10/02 12:32:22;;;;;;;2.20;1.40;;;;;;;37.03;17.89;98469.72;5020229;28;20033;-84
2021/10/02 12:34:51;;;;;;;2.10;1.67;;;;;;;37.37;17.43;98480.00;5005997;28;20520;-84
2021/10/02 12:37:24;;;;;;;3.93;1.47;;;;;;;37.48;17.01;98475.63;4978585;28;20034;-84
2021/10/02 12:39:51;;;;;;;2.53;1.48;;;;;;;37.27;18.02;98477.88;4992342;28;20033;-84